sensor_id;sensor_type;location;lat;lon;timestamp;P1;durP1;ratioP1;P2;durP2;ratioP2
34242;SDS011;20504;43.214;27.920;2023-04-02T00:08:04;1.30;;;1.10;;
34242;SDS011;20504;43.214;27.920;2023-04-02T00:10:46;1.88;;;1.20;;
34242;SDS011;20504;43.214;27.920;2023-04-02T00:15:43;3.85;;;1.20;;
34242;SDS011;20504;43.214;27.920;2023-04-02T00:18:15;1.98;;;1.25;;
34242;SDS011;20504;43.214;27.920;2023-04-02T00:20:44;1.58;;;1.27;;
34242;SDS011;20504;43.214;27.920;2023-04-02T00:23:13;1.70;;;1.10;;
34242;SDS011;20504;43.214;27.920;2023-04-02T00:25:41;1.40;;;1.20;;
34242;SDS011;20504;43.214;27.920;2023-04-02T00:28:17;1.75;;;1.40;;
34242;SDS011;20504;43.214;27.920;2023-04-02T00:30:48;1.30;;;1.20;;
34242;SDS011;20504;43.214;27.920;2023-04-02T00:33:20;2.35;;;1.30;;
34242;SDS011;20504;43.214;27.920;2023-04-02T00:35:48;5.25;;;1.15;;
34242;SDS011;20504;43.214;27.920;2023-04-02T00:38:26;3.97;;;1.42;;
34242;SDS011;20504;43.214;27.920;2023-04-02T00:40:56;1.83;;;1.58;;
34242;SDS011;20504;43.214;27.920;2023-04-02T00:43:24;7.32;;;1.27;;
34242;SDS011;20504;43.214;27.920;2023-04-02T00:45:55;1.75;;;1.30;;
34242;SDS011;20504;43.214;27.920;2023-04-02T00:50:57;1.88;;;1.33;;
34242;SDS011;20504;43.214;27.920;2023-04-02T00:53:32;4.70;;;1.23;;
34242;SDS011;20504;43.214;27.920;2023-04-02T00:55:59;2.10;;;1.48;;
34242;SDS011;20504;43.214;27.920;2023-04-02T00:58:36;1.38;;;1.27;;
34242;SDS011;20504;43.214;27.920;2023-04-02T01:01:02;1.63;;;1.33;;
34242;SDS011;20504;43.214;27.920;2023-04-02T01:03:34;2.08;;;1.60;;
34242;SDS011;20504;43.214;27.920;2023-04-02T01:06:07;1.92;;;1.40;;
34242;SDS011;20504;43.214;27.920;2023-04-02T01:17:06;3.15;;;1.60;;
34242;SDS011;20504;43.214;27.920;2023-04-02T01:20:41;2.13;;;1.73;;
34242;SDS011;20504;43.214;27.920;2023-04-02T01:28:31;12.00;;;2.72;;
34242;SDS011;20504;43.214;27.920;2023-04-02T01:31:10;5.43;;;2.50;;
34242;SDS011;20504;43.214;27.920;2023-04-02T01:33:36;3.97;;;2.85;;
34242;SDS011;20504;43.214;27.920;2023-04-02T01:36:04;5.40;;;3.20;;
34242;SDS011;20504;43.214;27.920;2023-04-02T01:38:45;4.57;;;2.92;;
34242;SDS011;20504;43.214;27.920;2023-04-02T01:41:24;6.90;;;3.10;;
34242;SDS011;20504;43.214;27.920;2023-04-02T01:44:06;3.83;;;2.55;;
34242;SDS011;20504;43.214;27.920;2023-04-02T01:46:34;3.45;;;2.00;;
34242;SDS011;20504;43.214;27.920;2023-04-02T01:49:11;4.18;;;2.40;;
34242;SDS011;20504;43.214;27.920;2023-04-02T01:51:41;4.47;;;2.10;;
34242;SDS011;20504;43.214;27.920;2023-04-02T01:54:08;4.90;;;2.17;;
34242;SDS011;20504;43.214;27.920;2023-04-02T01:56:33;3.77;;;3.37;;
34242;SDS011;20504;43.214;27.920;2023-04-02T01:59:00;4.05;;;2.20;;
34242;SDS011;20504;43.214;27.920;2023-04-02T02:01:30;2.55;;;2.15;;
34242;SDS011;20504;43.214;27.920;2023-04-02T02:04:18;4.15;;;2.17;;
34242;SDS011;20504;43.214;27.920;2023-04-02T02:06:45;2.93;;;2.07;;
34242;SDS011;20504;43.214;27.920;2023-04-02T02:09:13;4.57;;;2.25;;
34242;SDS011;20504;43.214;27.920;2023-04-02T02:11:47;6.03;;;2.30;;
34242;SDS011;20504;43.214;27.920;2023-04-02T02:14:15;3.55;;;2.50;;
34242;SDS011;20504;43.214;27.920;2023-04-02T02:16:44;4.25;;;2.58;;
34242;SDS011;20504;43.214;27.920;2023-04-02T02:19:17;2.28;;;1.80;;
34242;SDS011;20504;43.214;27.920;2023-04-02T02:21:53;2.28;;;2.08;;
34242;SDS011;20504;43.214;27.920;2023-04-02T02:26:57;4.32;;;2.28;;
34242;SDS011;20504;43.214;27.920;2023-04-02T02:29:24;2.67;;;2.20;;
34242;SDS011;20504;43.214;27.920;2023-04-02T02:31:52;2.85;;;2.33;;
34242;SDS011;20504;43.214;27.920;2023-04-02T02:34:21;3.50;;;2.70;;
34242;SDS011;20504;43.214;27.920;2023-04-02T02:36:55;7.03;;;2.80;;
34242;SDS011;20504;43.214;27.920;2023-04-02T02:39:30;3.92;;;3.00;;
34242;SDS011;20504;43.214;27.920;2023-04-02T02:42:03;4.07;;;3.03;;
34242;SDS011;20504;43.214;27.920;2023-04-02T02:44:38;4.47;;;2.85;;
34242;SDS011;20504;43.214;27.920;2023-04-02T02:47:13;4.80;;;2.90;;
34242;SDS011;20504;43.214;27.920;2023-04-02T02:49:42;2.53;;;2.33;;
34242;SDS011;20504;43.214;27.920;2023-04-02T02:52:13;4.18;;;2.58;;
34242;SDS011;20504;43.214;27.920;2023-04-02T02:54:47;3.35;;;2.55;;
34242;SDS011;20504;43.214;27.920;2023-04-02T02:57:23;3.67;;;2.70;;
34242;SDS011;20504;43.214;27.920;2023-04-02T02:59:54;3.83;;;2.97;;
34242;SDS011;20504;43.214;27.920;2023-04-02T03:02:22;4.07;;;2.75;;
34242;SDS011;20504;43.214;27.920;2023-04-02T03:04:49;3.13;;;2.35;;
34242;SDS011;20504;43.214;27.920;2023-04-02T03:07:18;5.13;;;2.65;;
34242;SDS011;20504;43.214;27.920;2023-04-02T03:13:01;5.57;;;2.88;;
34242;SDS011;20504;43.214;27.920;2023-04-02T03:24:34;6.22;;;4.35;;
34242;SDS011;20504;43.214;27.920;2023-04-02T03:27:24;6.80;;;5.00;;
34242;SDS011;20504;43.214;27.920;2023-04-02T03:35:17;9.45;;;5.15;;
34242;SDS011;20504;43.214;27.920;2023-04-02T03:37:44;9.15;;;5.50;;
34242;SDS011;20504;43.214;27.920;2023-04-02T03:40:17;6.05;;;4.47;;
34242;SDS011;20504;43.214;27.920;2023-04-02T03:42:48;6.05;;;4.85;;
34242;SDS011;20504;43.214;27.920;2023-04-02T03:45:27;8.18;;;4.68;;
34242;SDS011;20504;43.214;27.920;2023-04-02T03:48:00;7.78;;;4.53;;
34242;SDS011;20504;43.214;27.920;2023-04-02T03:50:39;6.45;;;4.00;;
34242;SDS011;20504;43.214;27.920;2023-04-02T03:53:11;9.32;;;4.40;;
34242;SDS011;20504;43.214;27.920;2023-04-02T03:55:38;6.10;;;4.07;;
34242;SDS011;20504;43.214;27.920;2023-04-02T03:58:12;10.38;;;4.55;;
34242;SDS011;20504;43.214;27.920;2023-04-02T04:00:48;10.70;;;4.43;;
34242;SDS011;20504;43.214;27.920;2023-04-02T04:03:38;5.93;;;4.10;;
34242;SDS011;20504;43.214;27.920;2023-04-02T04:11:42;7.15;;;4.13;;
34242;SDS011;20504;43.214;27.920;2023-04-02T04:14:14;8.00;;;4.32;;
34242;SDS011;20504;43.214;27.920;2023-04-02T04:20:02;9.65;;;4.70;;
34242;SDS011;20504;43.214;27.920;2023-04-02T04:22:39;8.60;;;5.95;;
34242;SDS011;20504;43.214;27.920;2023-04-02T04:25:06;14.13;;;6.50;;
34242;SDS011;20504;43.214;27.920;2023-04-02T04:28:26;11.10;;;6.32;;
34242;SDS011;20504;43.214;27.920;2023-04-02T04:30:56;11.98;;;7.15;;
34242;SDS011;20504;43.214;27.920;2023-04-02T04:33:26;14.32;;;8.27;;
34242;SDS011;20504;43.214;27.920;2023-04-02T04:36:03;12.63;;;8.30;;
34242;SDS011;20504;43.214;27.920;2023-04-02T04:38:36;14.65;;;10.02;;
34242;SDS011;20504;43.214;27.920;2023-04-02T04:41:12;15.60;;;10.52;;
34242;SDS011;20504;43.214;27.920;2023-04-02T04:51:33;12.48;;;9.20;;
34242;SDS011;20504;43.214;27.920;2023-04-02T04:54:03;22.27;;;11.15;;
34242;SDS011;20504;43.214;27.920;2023-04-02T04:56:29;14.43;;;10.53;;
34242;SDS011;20504;43.214;27.920;2023-04-02T04:59:00;12.20;;;8.85;;
34242;SDS011;20504;43.214;27.920;2023-04-02T05:01:52;16.65;;;8.63;;
34242;SDS011;20504;43.214;27.920;2023-04-02T05:04:39;12.98;;;7.75;;
34242;SDS011;20504;43.214;27.920;2023-04-02T05:10:05;12.93;;;7.28;;
34242;SDS011;20504;43.214;27.920;2023-04-02T05:12:38;7.30;;;5.90;;
34242;SDS011;20504;43.214;27.920;2023-04-02T05:15:11;7.13;;;5.25;;
34242;SDS011;20504;43.214;27.920;2023-04-02T05:17:47;8.82;;;4.50;;
34242;SDS011;20504;43.214;27.920;2023-04-02T05:23:25;6.30;;;4.20;;
34242;SDS011;20504;43.214;27.920;2023-04-02T05:25:51;5.00;;;4.10;;
34242;SDS011;20504;43.214;27.920;2023-04-02T05:28:32;6.35;;;4.07;;
34242;SDS011;20504;43.214;27.920;2023-04-02T05:31:19;8.35;;;4.18;;
34242;SDS011;20504;43.214;27.920;2023-04-02T05:33:52;8.18;;;4.68;;
34242;SDS011;20504;43.214;27.920;2023-04-02T05:38:48;6.30;;;4.25;;
34242;SDS011;20504;43.214;27.920;2023-04-02T05:43:53;7.03;;;3.83;;
34242;SDS011;20504;43.214;27.920;2023-04-02T05:46:35;7.28;;;3.58;;
34242;SDS011;20504;43.214;27.920;2023-04-02T05:49:08;8.82;;;4.50;;
34242;SDS011;20504;43.214;27.920;2023-04-02T05:51:44;8.57;;;5.22;;
34242;SDS011;20504;43.214;27.920;2023-04-02T05:54:21;8.02;;;5.40;;
34242;SDS011;20504;43.214;27.920;2023-04-02T05:56:56;10.75;;;6.43;;
34242;SDS011;20504;43.214;27.920;2023-04-02T05:59:28;7.82;;;4.82;;
34242;SDS011;20504;43.214;27.920;2023-04-02T06:04:52;4.05;;;3.25;;
34242;SDS011;20504;43.214;27.920;2023-04-02T06:07:39;3.45;;;2.97;;
34242;SDS011;20504;43.214;27.920;2023-04-02T06:10:13;6.22;;;3.15;;
34242;SDS011;20504;43.214;27.920;2023-04-02T06:12:45;6.55;;;3.25;;
34242;SDS011;20504;43.214;27.920;2023-04-02T06:15:16;6.93;;;3.53;;
34242;SDS011;20504;43.214;27.920;2023-04-02T06:18:03;5.43;;;3.90;;
34242;SDS011;20504;43.214;27.920;2023-04-02T06:20:30;4.05;;;3.20;;
34242;SDS011;20504;43.214;27.920;2023-04-02T06:22:58;8.03;;;2.63;;
34242;SDS011;20504;43.214;27.920;2023-04-02T06:25:32;6.47;;;3.45;;
34242;SDS011;20504;43.214;27.920;2023-04-02T06:28:03;5.90;;;3.13;;
34242;SDS011;20504;43.214;27.920;2023-04-02T06:30:34;6.07;;;2.97;;
34242;SDS011;20504;43.214;27.920;2023-04-02T06:33:03;7.03;;;2.80;;
34242;SDS011;20504;43.214;27.920;2023-04-02T06:35:29;3.35;;;2.63;;
34242;SDS011;20504;43.214;27.920;2023-04-02T06:37:59;6.30;;;3.00;;
34242;SDS011;20504;43.214;27.920;2023-04-02T06:46:00;8.45;;;2.83;;
34242;SDS011;20504;43.214;27.920;2023-04-02T06:48:31;4.70;;;2.63;;
34242;SDS011;20504;43.214;27.920;2023-04-02T06:51:08;6.40;;;3.08;;
34242;SDS011;20504;43.214;27.920;2023-04-02T06:53:38;5.78;;;3.33;;
34242;SDS011;20504;43.214;27.920;2023-04-02T06:58:51;7.30;;;3.47;;
34242;SDS011;20504;43.214;27.920;2023-04-02T07:01:19;3.03;;;2.50;;
34242;SDS011;20504;43.214;27.920;2023-04-02T07:03:48;5.22;;;2.58;;
34242;SDS011;20504;43.214;27.920;2023-04-02T07:06:16;4.43;;;2.33;;
34242;SDS011;20504;43.214;27.920;2023-04-02T07:08:44;2.75;;;1.88;;
34242;SDS011;20504;43.214;27.920;2023-04-02T07:11:13;3.17;;;1.80;;
34242;SDS011;20504;43.214;27.920;2023-04-02T07:13:41;1.80;;;1.40;;
34242;SDS011;20504;43.214;27.920;2023-04-02T07:16:10;3.55;;;1.70;;
34242;SDS011;20504;43.214;27.920;2023-04-02T07:18:39;2.53;;;1.73;;
34242;SDS011;20504;43.214;27.920;2023-04-02T07:21:05;3.27;;;1.53;;
34242;SDS011;20504;43.214;27.920;2023-04-02T07:23:31;2.57;;;1.57;;
34242;SDS011;20504;43.214;27.920;2023-04-02T07:25:56;2.30;;;1.67;;
34242;SDS011;20504;43.214;27.920;2023-04-02T07:28:22;4.87;;;2.43;;
34242;SDS011;20504;43.214;27.920;2023-04-02T07:30:48;4.00;;;1.60;;
34242;SDS011;20504;43.214;27.920;2023-04-02T07:33:19;3.92;;;1.85;;
34242;SDS011;20504;43.214;27.920;2023-04-02T07:35:46;4.03;;;1.80;;
34242;SDS011;20504;43.214;27.920;2023-04-02T07:38:12;5.63;;;2.60;;
34242;SDS011;20504;43.214;27.920;2023-04-02T07:40:38;3.73;;;1.77;;
34242;SDS011;20504;43.214;27.920;2023-04-02T07:43:04;4.77;;;1.77;;
34242;SDS011;20504;43.214;27.920;2023-04-02T07:45:30;2.17;;;1.60;;
34242;SDS011;20504;43.214;27.920;2023-04-02T07:47:56;6.30;;;2.23;;
34242;SDS011;20504;43.214;27.920;2023-04-02T07:50:21;3.67;;;1.77;;
34242;SDS011;20504;43.214;27.920;2023-04-02T07:52:47;4.77;;;2.50;;
34242;SDS011;20504;43.214;27.920;2023-04-02T07:55:13;4.37;;;2.13;;
34242;SDS011;20504;43.214;27.920;2023-04-02T07:57:49;4.43;;;2.10;;
34242;SDS011;20504;43.214;27.920;2023-04-02T08:00:16;8.60;;;2.75;;
34242;SDS011;20504;43.214;27.920;2023-04-02T08:02:43;3.55;;;2.10;;
34242;SDS011;20504;43.214;27.920;2023-04-02T08:05:09;6.22;;;2.20;;
34242;SDS011;20504;43.214;27.920;2023-04-02T08:07:35;6.63;;;2.90;;
34242;SDS011;20504;43.214;27.920;2023-04-02T08:10:01;2.90;;;2.43;;
34242;SDS011;20504;43.214;27.920;2023-04-02T08:12:27;4.65;;;2.42;;
34242;SDS011;20504;43.214;27.920;2023-04-02T08:14:53;9.97;;;3.00;;
34242;SDS011;20504;43.214;27.920;2023-04-02T08:17:19;4.70;;;2.80;;
34242;SDS011;20504;43.214;27.920;2023-04-02T08:19:44;5.37;;;2.47;;
34242;SDS011;20504;43.214;27.920;2023-04-02T08:22:12;4.15;;;2.30;;
34242;SDS011;20504;43.214;27.920;2023-04-02T08:24:38;5.93;;;2.45;;
34242;SDS011;20504;43.214;27.920;2023-04-02T08:27:04;3.57;;;1.87;;
34242;SDS011;20504;43.214;27.920;2023-04-02T08:29:29;2.53;;;2.10;;
34242;SDS011;20504;43.214;27.920;2023-04-02T08:32:00;2.95;;;2.30;;
34242;SDS011;20504;43.214;27.920;2023-04-02T08:34:26;4.97;;;2.55;;
34242;SDS011;20504;43.214;27.920;2023-04-02T08:36:54;3.23;;;2.17;;
34242;SDS011;20504;43.214;27.920;2023-04-02T08:39:21;3.17;;;2.38;;
34242;SDS011;20504;43.214;27.920;2023-04-02T08:44:58;3.22;;;2.10;;
34242;SDS011;20504;43.214;27.920;2023-04-02T08:47:31;4.90;;;1.90;;
34242;SDS011;20504;43.214;27.920;2023-04-02T08:50:49;3.72;;;1.85;;
34242;SDS011;20504;43.214;27.920;2023-04-02T08:52:58;3.95;;;2.35;;
34242;SDS011;20504;43.214;27.920;2023-04-02T08:55:39;5.60;;;1.77;;
34242;SDS011;20504;43.214;27.920;2023-04-02T09:01:10;3.35;;;1.73;;
34242;SDS011;20504;43.214;27.920;2023-04-02T09:04:02;7.07;;;1.92;;
34242;SDS011;20504;43.214;27.920;2023-04-02T09:06:31;3.75;;;2.20;;
34242;SDS011;20504;43.214;27.920;2023-04-02T09:08:57;4.18;;;2.35;;
34242;SDS011;20504;43.214;27.920;2023-04-02T09:13:57;1.77;;;1.42;;
34242;SDS011;20504;43.214;27.920;2023-04-02T09:21:54;3.28;;;2.03;;
34242;SDS011;20504;43.214;27.920;2023-04-02T09:24:28;4.82;;;2.38;;
34242;SDS011;20504;43.214;27.920;2023-04-02T09:26:53;4.20;;;2.20;;
34242;SDS011;20504;43.214;27.920;2023-04-02T09:37:42;3.78;;;2.33;;
34242;SDS011;20504;43.214;27.920;2023-04-02T09:40:31;4.88;;;3.00;;
34242;SDS011;20504;43.214;27.920;2023-04-02T09:43:04;4.82;;;1.98;;
34242;SDS011;20504;43.214;27.920;2023-04-02T09:45:37;6.40;;;2.53;;
34242;SDS011;20504;43.214;27.920;2023-04-02T09:48:04;2.75;;;2.13;;
34242;SDS011;20504;43.214;27.920;2023-04-02T09:51:18;4.40;;;2.25;;
34242;SDS011;20504;43.214;27.920;2023-04-02T09:53:49;2.45;;;2.00;;
34242;SDS011;20504;43.214;27.920;2023-04-02T09:56:37;2.25;;;1.70;;
34242;SDS011;20504;43.214;27.920;2023-04-02T09:59:04;4.82;;;1.85;;
34242;SDS011;20504;43.214;27.920;2023-04-02T10:02:16;4.95;;;2.40;;
34242;SDS011;20504;43.214;27.920;2023-04-02T10:04:47;2.35;;;1.70;;
34242;SDS011;20504;43.214;27.920;2023-04-02T10:09:58;4.75;;;1.98;;
34242;SDS011;20504;43.214;27.920;2023-04-02T10:12:46;2.30;;;1.40;;
34242;SDS011;20504;43.214;27.920;2023-04-02T10:15:22;3.88;;;1.67;;
34242;SDS011;20504;43.214;27.920;2023-04-02T10:17:59;5.13;;;1.58;;
34242;SDS011;20504;43.214;27.920;2023-04-02T10:20:30;3.90;;;1.60;;
34242;SDS011;20504;43.214;27.920;2023-04-02T10:22:58;2.55;;;1.70;;
34242;SDS011;20504;43.214;27.920;2023-04-02T10:25:24;2.50;;;1.77;;
34242;SDS011;20504;43.214;27.920;2023-04-02T10:27:56;2.80;;;1.60;;
34242;SDS011;20504;43.214;27.920;2023-04-02T10:33:16;5.45;;;1.70;;
34242;SDS011;20504;43.214;27.920;2023-04-02T10:38:35;4.38;;;1.90;;
34242;SDS011;20504;43.214;27.920;2023-04-02T10:41:21;2.45;;;1.90;;
34242;SDS011;20504;43.214;27.920;2023-04-02T10:43:59;8.80;;;4.25;;
34242;SDS011;20504;43.214;27.920;2023-04-02T10:57:40;3.70;;;1.60;;
34242;SDS011;20504;43.214;27.920;2023-04-02T11:05:11;6.93;;;3.67;;
34242;SDS011;20504;43.214;27.920;2023-04-02T11:07:47;5.95;;;3.70;;
34242;SDS011;20504;43.214;27.920;2023-04-02T11:10:21;3.45;;;1.92;;
34242;SDS011;20504;43.214;27.920;2023-04-02T11:12:52;3.13;;;1.65;;
34242;SDS011;20504;43.214;27.920;2023-04-02T11:15:21;2.92;;;1.80;;
34242;SDS011;20504;43.214;27.920;2023-04-02T11:17:47;3.13;;;1.80;;
34242;SDS011;20504;43.214;27.920;2023-04-02T11:23:21;2.60;;;1.25;;
34242;SDS011;20504;43.214;27.920;2023-04-02T11:25:50;3.30;;;1.60;;
34242;SDS011;20504;43.214;27.920;2023-04-02T11:30:53;3.60;;;2.10;;
34242;SDS011;20504;43.214;27.920;2023-04-02T11:36:56;4.55;;;1.60;;
34242;SDS011;20504;43.214;27.920;2023-04-02T11:39:10;2.30;;;1.23;;
34242;SDS011;20504;43.214;27.920;2023-04-02T11:44:23;2.28;;;1.30;;
34242;SDS011;20504;43.214;27.920;2023-04-02T11:46:49;3.83;;;1.73;;
34242;SDS011;20504;43.214;27.920;2023-04-02T11:52:09;1.88;;;1.42;;
34242;SDS011;20504;43.214;27.920;2023-04-02T11:54:45;2.85;;;1.30;;
34242;SDS011;20504;43.214;27.920;2023-04-02T12:00:18;1.30;;;1.20;;
34242;SDS011;20504;43.214;27.920;2023-04-02T12:03:00;10.40;;;1.33;;
34242;SDS011;20504;43.214;27.920;2023-04-02T12:05:50;2.55;;;1.35;;
34242;SDS011;20504;43.214;27.920;2023-04-02T12:11:29;4.60;;;1.17;;
34242;SDS011;20504;43.214;27.920;2023-04-02T12:13:58;3.25;;;1.70;;
34242;SDS011;20504;43.214;27.920;2023-04-02T12:16:24;2.47;;;1.70;;
34242;SDS011;20504;43.214;27.920;2023-04-02T12:18:55;3.50;;;1.67;;
34242;SDS011;20504;43.214;27.920;2023-04-02T12:21:25;2.15;;;1.15;;
34242;SDS011;20504;43.214;27.920;2023-04-02T12:23:53;2.00;;;1.40;;
34242;SDS011;20504;43.214;27.920;2023-04-02T12:26:26;1.35;;;0.82;;
34242;SDS011;20504;43.214;27.920;2023-04-02T12:29:41;2.30;;;1.83;;
34242;SDS011;20504;43.214;27.920;2023-04-02T12:31:44;4.70;;;1.60;;
34242;SDS011;20504;43.214;27.920;2023-04-02T12:34:15;1.70;;;1.33;;
34242;SDS011;20504;43.214;27.920;2023-04-02T12:39:18;1.92;;;1.38;;
34242;SDS011;20504;43.214;27.920;2023-04-02T12:41:43;4.70;;;1.57;;
34242;SDS011;20504;43.214;27.920;2023-04-02T12:44:13;3.33;;;2.00;;
34242;SDS011;20504;43.214;27.920;2023-04-02T12:46:42;2.50;;;1.92;;
34242;SDS011;20504;43.214;27.920;2023-04-02T12:52:03;3.65;;;1.77;;
34242;SDS011;20504;43.214;27.920;2023-04-02T12:54:57;3.33;;;1.80;;
34242;SDS011;20504;43.214;27.920;2023-04-02T12:59:54;2.58;;;1.98;;
34242;SDS011;20504;43.214;27.920;2023-04-02T13:05:36;6.65;;;3.90;;
34242;SDS011;20504;43.214;27.920;2023-04-02T13:08:16;3.83;;;1.90;;
34242;SDS011;20504;43.214;27.920;2023-04-02T13:10:47;3.17;;;1.88;;
34242;SDS011;20504;43.214;27.920;2023-04-02T13:13:19;1.70;;;1.50;;
34242;SDS011;20504;43.214;27.920;2023-04-02T13:18:29;33.65;;;4.22;;
34242;SDS011;20504;43.214;27.920;2023-04-02T13:21:00;22.77;;;3.38;;
34242;SDS011;20504;43.214;27.920;2023-04-02T13:25:54;4.03;;;1.97;;
34242;SDS011;20504;43.214;27.920;2023-04-02T13:28:20;9.30;;;2.20;;
34242;SDS011;20504;43.214;27.920;2023-04-02T13:30:46;3.63;;;1.70;;
34242;SDS011;20504;43.214;27.920;2023-04-02T13:33:12;2.63;;;1.60;;
34242;SDS011;20504;43.214;27.920;2023-04-02T13:38:04;4.65;;;1.27;;
34242;SDS011;20504;43.214;27.920;2023-04-02T13:40:30;2.30;;;1.67;;
34242;SDS011;20504;43.214;27.920;2023-04-02T13:42:58;2.88;;;1.60;;
34242;SDS011;20504;43.214;27.920;2023-04-02T13:45:27;2.50;;;1.57;;
34242;SDS011;20504;43.214;27.920;2023-04-02T13:47:56;4.05;;;1.60;;
34242;SDS011;20504;43.214;27.920;2023-04-02T13:50:25;1.58;;;1.30;;
34242;SDS011;20504;43.214;27.920;2023-04-02T13:52:52;3.90;;;1.60;;
34242;SDS011;20504;43.214;27.920;2023-04-02T13:55:21;2.60;;;1.67;;
34242;SDS011;20504;43.214;27.920;2023-04-02T13:57:49;4.00;;;1.85;;
34242;SDS011;20504;43.214;27.920;2023-04-02T14:00:16;4.13;;;1.98;;
34242;SDS011;20504;43.214;27.920;2023-04-02T14:05:16;3.42;;;1.80;;
34242;SDS011;20504;43.214;27.920;2023-04-02T14:08:20;2.42;;;1.70;;
34242;SDS011;20504;43.214;27.920;2023-04-02T14:14:32;2.58;;;1.80;;
34242;SDS011;20504;43.214;27.920;2023-04-02T14:17:17;1.88;;;1.63;;
34242;SDS011;20504;43.214;27.920;2023-04-02T14:22:55;6.32;;;1.77;;
34242;SDS011;20504;43.214;27.920;2023-04-02T14:25:48;2.13;;;1.30;;
34242;SDS011;20504;43.214;27.920;2023-04-02T14:28:40;2.85;;;1.50;;
34242;SDS011;20504;43.214;27.920;2023-04-02T14:36:37;3.83;;;1.77;;
34242;SDS011;20504;43.214;27.920;2023-04-02T14:41:56;1.80;;;1.65;;
34242;SDS011;20504;43.214;27.920;2023-04-02T14:44:26;2.15;;;1.70;;
34242;SDS011;20504;43.214;27.920;2023-04-02T14:47:00;3.15;;;1.63;;
34242;SDS011;20504;43.214;27.920;2023-04-02T14:49:38;2.50;;;1.70;;
34242;SDS011;20504;43.214;27.920;2023-04-02T14:52:11;3.00;;;1.85;;
34242;SDS011;20504;43.214;27.920;2023-04-02T14:54:53;3.33;;;1.55;;
34242;SDS011;20504;43.214;27.920;2023-04-02T14:57:30;2.45;;;1.60;;
34242;SDS011;20504;43.214;27.920;2023-04-02T15:02:47;4.55;;;2.03;;
34242;SDS011;20504;43.214;27.920;2023-04-02T15:08:21;6.30;;;3.40;;
34242;SDS011;20504;43.214;27.920;2023-04-02T15:10:55;5.18;;;2.75;;
34242;SDS011;20504;43.214;27.920;2023-04-02T15:13:27;6.55;;;2.80;;
34242;SDS011;20504;43.214;27.920;2023-04-02T15:16:07;4.35;;;2.65;;
34242;SDS011;20504;43.214;27.920;2023-04-02T15:18:33;3.90;;;2.60;;
34242;SDS011;20504;43.214;27.920;2023-04-02T15:31:46;3.75;;;2.53;;
34242;SDS011;20504;43.214;27.920;2023-04-02T15:37:00;4.45;;;2.35;;
34242;SDS011;20504;43.214;27.920;2023-04-02T15:42:23;8.38;;;4.13;;
34242;SDS011;20504;43.214;27.920;2023-04-02T15:45:15;14.02;;;7.22;;
34242;SDS011;20504;43.214;27.920;2023-04-02T16:04:44;8.77;;;2.63;;
34242;SDS011;20504;43.214;27.920;2023-04-02T16:12:44;5.53;;;3.03;;
34242;SDS011;20504;43.214;27.920;2023-04-02T16:15:17;6.55;;;3.25;;
34242;SDS011;20504;43.214;27.920;2023-04-02T16:20:23;7.75;;;3.65;;
34242;SDS011;20504;43.214;27.920;2023-04-02T16:23:02;6.15;;;3.83;;
34242;SDS011;20504;43.214;27.920;2023-04-02T16:25:38;9.82;;;3.97;;
34242;SDS011;20504;43.214;27.920;2023-04-02T16:28:15;12.00;;;4.88;;
34242;SDS011;20504;43.214;27.920;2023-04-02T16:31:01;10.25;;;5.72;;
34242;SDS011;20504;43.214;27.920;2023-04-02T16:33:50;11.50;;;5.93;;
34242;SDS011;20504;43.214;27.920;2023-04-02T16:36:24;9.77;;;6.25;;
34242;SDS011;20504;43.214;27.920;2023-04-02T16:38:56;35.92;;;16.23;;
34242;SDS011;20504;43.214;27.920;2023-04-02T16:42:27;6.75;;;4.55;;
34242;SDS011;20504;43.214;27.920;2023-04-02T17:00:41;3.00;;;2.38;;
34242;SDS011;20504;43.214;27.920;2023-04-02T17:06:08;7.22;;;2.42;;
34242;SDS011;20504;43.214;27.920;2023-04-02T17:09:00;6.70;;;4.32;;
34242;SDS011;20504;43.214;27.920;2023-04-02T17:11:37;4.18;;;2.55;;
34242;SDS011;20504;43.214;27.920;2023-04-02T17:17:02;3.45;;;2.72;;
34242;SDS011;20504;43.214;27.920;2023-04-02T17:19:29;6.25;;;2.67;;
34242;SDS011;20504;43.214;27.920;2023-04-02T17:21:58;3.22;;;2.15;;
34242;SDS011;20504;43.214;27.920;2023-04-02T17:24:34;3.80;;;2.70;;
34242;SDS011;20504;43.214;27.920;2023-04-02T17:29:43;6.93;;;3.20;;
34242;SDS011;20504;43.214;27.920;2023-04-02T17:32:17;3.35;;;2.30;;
34242;SDS011;20504;43.214;27.920;2023-04-02T17:34:46;3.45;;;2.70;;
34242;SDS011;20504;43.214;27.920;2023-04-02T17:37:24;6.13;;;3.10;;
34242;SDS011;20504;43.214;27.920;2023-04-02T17:45:51;9.18;;;5.00;;
34242;SDS011;20504;43.214;27.920;2023-04-02T17:48:23;9.13;;;5.60;;
34242;SDS011;20504;43.214;27.920;2023-04-02T18:01:58;7.35;;;4.45;;
34242;SDS011;20504;43.214;27.920;2023-04-02T18:07:21;6.82;;;3.92;;
34242;SDS011;20504;43.214;27.920;2023-04-02T18:17:51;7.13;;;5.43;;
34242;SDS011;20504;43.214;27.920;2023-04-02T18:31:48;12.85;;;7.60;;
34242;SDS011;20504;43.214;27.920;2023-04-02T18:37:18;9.90;;;5.35;;
34242;SDS011;20504;43.214;27.920;2023-04-02T18:40:08;8.55;;;4.90;;
34242;SDS011;20504;43.214;27.920;2023-04-02T18:43:07;11.35;;;4.65;;
34242;SDS011;20504;43.214;27.920;2023-04-02T18:50:53;9.98;;;5.88;;
34242;SDS011;20504;43.214;27.920;2023-04-02T18:53:22;9.32;;;6.50;;
34242;SDS011;20504;43.214;27.920;2023-04-02T18:58:27;7.80;;;5.50;;
34242;SDS011;20504;43.214;27.920;2023-04-02T19:01:15;9.75;;;4.93;;
34242;SDS011;20504;43.214;27.920;2023-04-02T19:03:55;14.73;;;5.20;;
34242;SDS011;20504;43.214;27.920;2023-04-02T19:06:28;7.50;;;4.35;;
34242;SDS011;20504;43.214;27.920;2023-04-02T19:09:11;12.95;;;5.32;;
34242;SDS011;20504;43.214;27.920;2023-04-02T19:11:40;8.77;;;6.18;;
34242;SDS011;20504;43.214;27.920;2023-04-02T19:14:09;10.77;;;6.17;;
34242;SDS011;20504;43.214;27.920;2023-04-02T19:19:33;11.23;;;6.70;;
34242;SDS011;20504;43.214;27.920;2023-04-02T19:25:39;13.05;;;7.50;;
34242;SDS011;20504;43.214;27.920;2023-04-02T19:33:40;13.00;;;7.72;;
34242;SDS011;20504;43.214;27.920;2023-04-02T19:38:59;12.55;;;8.60;;
34242;SDS011;20504;43.214;27.920;2023-04-02T19:44:07;14.52;;;8.27;;
34242;SDS011;20504;43.214;27.920;2023-04-02T19:46:34;11.20;;;7.43;;
34242;SDS011;20504;43.214;27.920;2023-04-02T19:49:02;11.80;;;8.57;;
34242;SDS011;20504;43.214;27.920;2023-04-02T19:51:32;13.63;;;7.35;;
34242;SDS011;20504;43.214;27.920;2023-04-02T19:53:58;9.23;;;7.37;;
34242;SDS011;20504;43.214;27.920;2023-04-02T19:56:24;12.18;;;7.25;;
34242;SDS011;20504;43.214;27.920;2023-04-02T19:58:52;15.05;;;7.78;;
34242;SDS011;20504;43.214;27.920;2023-04-02T20:01:17;19.48;;;8.25;;
34242;SDS011;20504;43.214;27.920;2023-04-02T20:03:43;12.43;;;8.43;;
34242;SDS011;20504;43.214;27.920;2023-04-02T20:06:08;15.73;;;9.00;;
34242;SDS011;20504;43.214;27.920;2023-04-02T20:08:34;17.53;;;8.73;;
34242;SDS011;20504;43.214;27.920;2023-04-02T20:11:03;11.50;;;7.40;;
34242;SDS011;20504;43.214;27.920;2023-04-02T20:13:30;13.75;;;7.30;;
34242;SDS011;20504;43.214;27.920;2023-04-02T20:15:58;12.87;;;6.93;;
34242;SDS011;20504;43.214;27.920;2023-04-02T20:18:25;12.27;;;7.70;;
34242;SDS011;20504;43.214;27.920;2023-04-02T20:20:51;14.23;;;7.28;;
34242;SDS011;20504;43.214;27.920;2023-04-02T20:23:17;9.83;;;6.87;;
34242;SDS011;20504;43.214;27.920;2023-04-02T20:25:46;11.27;;;6.57;;
34242;SDS011;20504;43.214;27.920;2023-04-02T20:28:20;8.35;;;5.85;;
34242;SDS011;20504;43.214;27.920;2023-04-02T20:30:50;10.35;;;6.45;;
34242;SDS011;20504;43.214;27.920;2023-04-02T20:33:19;11.10;;;6.90;;